sensor_id;sensor_type;location;lat;lon;timestamp;pressure;altitude;pressure_sealevel;temperature;humidity
13968;BME280;39536;52.198;9.920;2023-03-03T00:01:14;101555.91;;;0.70;100.00
13968;BME280;39536;52.198;9.920;2023-03-03T00:03:41;101547.56;;;0.79;100.00
13968;BME280;39536;52.198;9.920;2023-03-03T00:06:10;101534.69;;;0.77;100.00
13968;BME280;39536;52.198;9.920;2023-03-03T00:08:37;101535.78;;;0.51;100.00
13968;BME280;39536;52.198;9.920;2023-03-03T00:11:06;101533.47;;;0.27;100.00
13968;BME280;39536;52.198;9.920;2023-03-03T00:13:42;101526.66;;;0.27;100.00
13968;BME280;39536;52.198;9.920;2023-03-03T00:16:15;101528.66;;;0.39;100.00
13968;BME280;39536;52.198;9.920;2023-03-03T00:18:44;101530.75;;;0.55;100.00
13968;BME280;39536;52.198;9.920;2023-03-03T00:21:29;101543.78;;;0.63;100.00
13968;BME280;39536;52.198;9.920;2023-03-03T00:24:16;101540.16;;;0.55;100.00
13968;BME280;39536;52.198;9.920;2023-03-03T00:26:45;101543.66;;;0.58;100.00
13968;BME280;39536;52.198;9.920;2023-03-03T00:29:28;101544.94;;;0.41;100.00
13968;BME280;39536;52.198;9.920;2023-03-03T00:32:02;101539.66;;;0.35;100.00
13968;BME280;39536;52.198;9.920;2023-03-03T00:34:34;101540.91;;;0.16;100.00
13968;BME280;39536;52.198;9.920;2023-03-03T00:37:02;101535.72;;;0.14;100.00
13968;BME280;39536;52.198;9.920;2023-03-03T00:39:30;101535.38;;;0.02;100.00
13968;BME280;39536;52.198;9.920;2023-03-03T00:42:00;101545.88;;;0.11;100.00
13968;BME280;39536;52.198;9.920;2023-03-03T00:44:37;101546.75;;;0.12;100.00
13968;BME280;39536;52.198;9.920;2023-03-03T00:47:18;101546.72;;;0.10;100.00
13968;BME280;39536;52.198;9.920;2023-03-03T00:49:49;101555.38;;;0.15;100.00
13968;BME280;39536;52.198;9.920;2023-03-03T00:52:17;101556.44;;;0.23;100.00
13968;BME280;39536;52.198;9.920;2023-03-03T00:54:44;101552.97;;;0.21;100.00
13968;BME280;39536;52.198;9.920;2023-03-03T00:57:13;101554.41;;;0.10;100.00
13968;BME280;39536;52.198;9.920;2023-03-03T00:59:40;101553.63;;;0.13;100.00
13968;BME280;39536;52.198;9.920;2023-03-03T01:02:07;101560.56;;;0.18;100.00
13968;BME280;39536;52.198;9.920;2023-03-03T01:04:33;101560.94;;;0.32;100.00
13968;BME280;39536;52.198;9.920;2023-03-03T01:07:00;101559.28;;;0.34;100.00
13968;BME280;39536;52.198;9.920;2023-03-03T01:09:27;101559.50;;;0.43;100.00
13968;BME280;39536;52.198;9.920;2023-03-03T01:11:53;101564.94;;;0.54;100.00
13968;BME280;39536;52.198;9.920;2023-03-03T01:14:21;101556.44;;;0.23;100.00
13968;BME280;39536;52.198;9.920;2023-03-03T01:16:48;101556.44;;;0.23;100.00
13968;BME280;39536;52.198;9.920;2023-03-03T01:19:15;101561.41;;;0.17;100.00
13968;BME280;39536;52.198;9.920;2023-03-03T01:21:42;101550.31;;;0.17;100.00
13968;BME280;39536;52.198;9.920;2023-03-03T01:24:08;101554.72;;;0.22;100.00
13968;BME280;39536;52.198;9.920;2023-03-03T01:26:35;101548.28;;;0.05;100.00
13968;BME280;39536;52.198;9.920;2023-03-03T01:29:02;101556.81;;;0.04;100.00
13968;BME280;39536;52.198;9.920;2023-03-03T01:31:30;101558.63;;;-0.22;100.00
13968;BME280;39536;52.198;9.920;2023-03-03T01:33:58;101546.91;;;-0.14;100.00
13968;BME280;39536;52.198;9.920;2023-03-03T01:36:26;101565.84;;;-0.09;100.00
13968;BME280;39536;52.198;9.920;2023-03-03T01:38:54;101566.88;;;-0.02;100.00
13968;BME280;39536;52.198;9.920;2023-03-03T01:41:20;101562.44;;;-0.09;100.00
13968;BME280;39536;52.198;9.920;2023-03-03T01:43:49;101565.00;;;-0.38;100.00
13968;BME280;39536;52.198;9.920;2023-03-03T01:46:32;101572.66;;;-0.39;100.00
13968;BME280;39536;52.198;9.920;2023-03-03T01:49:04;101553.03;;;-0.40;100.00
13968;BME280;39536;52.198;9.920;2023-03-03T01:51:35;101553.06;;;-0.39;100.00
13968;BME280;39536;52.198;9.920;2023-03-03T01:54:04;101556.19;;;-0.49;100.00
13968;BME280;39536;52.198;9.920;2023-03-03T01:56:31;101542.19;;;-0.60;100.00
13968;BME280;39536;52.198;9.920;2023-03-03T01:59:00;101538.19;;;-0.52;100.00
13968;BME280;39536;52.198;9.920;2023-03-03T02:01:31;101545.63;;;-0.30;100.00
13968;BME280;39536;52.198;9.920;2023-03-03T02:03:59;101551.13;;;-0.16;100.00
13968;BME280;39536;52.198;9.920;2023-03-03T02:06:27;101553.25;;;-0.01;100.00
13968;BME280;39536;52.198;9.920;2023-03-03T02:08:59;101563.94;;;0.16;100.00
13968;BME280;39536;52.198;9.920;2023-03-03T02:11:28;101568.34;;;0.21;100.00
13968;BME280;39536;52.198;9.920;2023-03-03T02:13:56;101555.44;;;0.18;100.00
13968;BME280;39536;52.198;9.920;2023-03-03T02:16:23;101567.75;;;-0.02;100.00
13968;BME280;39536;52.198;9.920;2023-03-03T02:18:51;101562.72;;;0.03;100.00
13968;BME280;39536;52.198;9.920;2023-03-03T02:21:19;101561.41;;;-0.14;100.00
13968;BME280;39536;52.198;9.920;2023-03-03T02:23:49;101562.09;;;-0.21;100.00
13968;BME280;39536;52.198;9.920;2023-03-03T02:26:21;101551.34;;;-0.08;100.00
13968;BME280;39536;52.198;9.920;2023-03-03T02:28:48;101551.84;;;-0.21;100.00
13968;BME280;39536;52.198;9.920;2023-03-03T02:31:17;101549.03;;;-0.31;100.00
13968;BME280;39536;52.198;9.920;2023-03-03T02:33:46;101554.22;;;-0.28;100.00
13968;BME280;39536;52.198;9.920;2023-03-03T02:36:14;101553.13;;;-0.36;100.00
13968;BME280;39536;52.198;9.920;2023-03-03T02:38:45;101549.28;;;-0.52;100.00
13968;BME280;39536;52.198;9.920;2023-03-03T02:41:20;101532.31;;;-0.48;100.00
13968;BME280;39536;52.198;9.920;2023-03-03T02:43:54;101527.19;;;-0.48;100.00
13968;BME280;39536;52.198;9.920;2023-03-03T02:46:22;101536.25;;;-0.59;100.00
13968;BME280;39536;52.198;9.920;2023-03-03T02:48:49;101539.72;;;-0.57;100.00
13968;BME280;39536;52.198;9.920;2023-03-03T02:51:15;101533.25;;;-0.44;100.00
13968;BME280;39536;52.198;9.920;2023-03-03T02:53:42;101548.19;;;-0.30;100.00
13968;BME280;39536;52.198;9.920;2023-03-03T02:56:08;101547.66;;;-0.18;100.00
13968;BME280;39536;52.198;9.920;2023-03-03T02:58:36;101545.19;;;-0.15;100.00
13968;BME280;39536;52.198;9.920;2023-03-03T03:01:03;101536.09;;;-0.04;100.00
13968;BME280;39536;52.198;9.920;2023-03-03T03:03:29;101543.59;;;-0.10;100.00
13968;BME280;39536;52.198;9.920;2023-03-03T03:05:56;101549.47;;;-0.14;100.00
13968;BME280;39536;52.198;9.920;2023-03-03T03:08:23;101540.94;;;-0.14;100.00
13968;BME280;39536;52.198;9.920;2023-03-03T03:10:49;101542.03;;;-0.36;100.00
13968;BME280;39536;52.198;9.920;2023-03-03T03:13:16;101543.88;;;-0.61;100.00
13968;BME280;39536;52.198;9.920;2023-03-03T03:15:45;101542.66;;;-0.74;100.00
13968;BME280;39536;52.198;9.920;2023-03-03T03:18:12;101534.56;;;-0.59;100.00
13968;BME280;39536;52.198;9.920;2023-03-03T03:20:38;101528.44;;;-0.64;100.00
13968;BME280;39536;52.198;9.920;2023-03-03T03:23:06;101532.81;;;-0.60;100.00
13968;BME280;39536;52.198;9.920;2023-03-03T03:25:32;101532.56;;;-0.39;100.00
13968;BME280;39536;52.198;9.920;2023-03-03T03:27:59;101539.94;;;-0.19;100.00
13968;BME280;39536;52.198;9.920;2023-03-03T03:30:25;101536.47;;;-0.21;100.00
13968;BME280;39536;52.198;9.920;2023-03-03T03:32:53;101535.03;;;-0.43;100.00
13968;BME280;39536;52.198;9.920;2023-03-03T03:35:19;101532.78;;;-0.61;100.00
13968;BME280;39536;52.198;9.920;2023-03-03T03:37:46;101535.81;;;-0.75;100.00
13968;BME280;39536;52.198;9.920;2023-03-03T03:40:12;101541.75;;;-0.76;100.00
13968;BME280;39536;52.198;9.920;2023-03-03T03:42:39;101543.78;;;-0.64;100.00
13968;BME280;39536;52.198;9.920;2023-03-03T03:45:06;101553.28;;;-0.60;100.00
13968;BME280;39536;52.198;9.920;2023-03-03T03:47:33;101549.00;;;-0.61;100.00
13968;BME280;39536;52.198;9.920;2023-03-03T03:50:01;101548.25;;;-0.87;100.00
13968;BME280;39536;52.198;9.920;2023-03-03T03:52:27;101540.09;;;-0.74;100.00
13968;BME280;39536;52.198;9.920;2023-03-03T03:54:53;101533.66;;;-0.61;100.00
13968;BME280;39536;52.198;9.920;2023-03-03T03:57:20;101535.72;;;-0.49;100.00
13968;BME280;39536;52.198;9.920;2023-03-03T03:59:48;101541.25;;;-0.34;100.00
13968;BME280;39536;52.198;9.920;2023-03-03T04:02:14;101536.84;;;-0.38;100.00
13968;BME280;39536;52.198;9.920;2023-03-03T04:04:41;101539.97;;;-0.50;100.00
13968;BME280;39536;52.198;9.920;2023-03-03T04:07:08;101546.91;;;-0.45;100.00
13968;BME280;39536;52.198;9.920;2023-03-03T04:09:35;101549.13;;;-0.26;100.00
13968;BME280;39536;52.198;9.920;2023-03-03T04:12:01;101557.94;;;-0.16;100.00
13968;BME280;39536;52.198;9.920;2023-03-03T04:14:28;101562.50;;;-0.06;100.00
13968;BME280;39536;52.198;9.920;2023-03-03T04:16:55;101573.97;;;0.08;100.00
13968;BME280;39536;52.198;9.920;2023-03-03T04:19:22;101567.38;;;0.16;100.00
13968;BME280;39536;52.198;9.920;2023-03-03T04:21:48;101576.97;;;-0.07;100.00
13968;BME280;39536;52.198;9.920;2023-03-03T04:24:17;101575.00;;;-0.17;100.00
13968;BME280;39536;52.198;9.920;2023-03-03T04:26:44;101575.84;;;-0.16;100.00
13968;BME280;39536;52.198;9.920;2023-03-03T04:29:11;101568.41;;;-0.09;100.00
13968;BME280;39536;52.198;9.920;2023-03-03T04:31:37;101575.41;;;-0.03;100.00
13968;BME280;39536;52.198;9.920;2023-03-03T04:34:04;101576.53;;;0.08;100.00
13968;BME280;39536;52.198;9.920;2023-03-03T04:36:30;101560.97;;;0.01;100.00
13968;BME280;39536;52.198;9.920;2023-03-03T04:38:56;101564.94;;;-0.11;100.00
13968;BME280;39536;52.198;9.920;2023-03-03T04:41:24;101568.34;;;-0.10;100.00
13968;BME280;39536;52.198;9.920;2023-03-03T04:43:51;101568.78;;;0.05;100.00
13968;BME280;39536;52.198;9.920;2023-03-03T04:46:17;101571.38;;;0.07;100.00
13968;BME280;39536;52.198;9.920;2023-03-03T04:48:43;101569.78;;;-0.20;100.00
13968;BME280;39536;52.198;9.920;2023-03-03T04:51:10;101570.75;;;-0.16;100.00
13968;BME280;39536;52.198;9.920;2023-03-03T04:53:36;101570.28;;;-0.03;100.00
13968;BME280;39536;52.198;9.920;2023-03-03T04:56:03;101569.00;;;0.13;100.00
13968;BME280;39536;52.198;9.920;2023-03-03T04:58:31;101565.06;;;0.26;100.00
13968;BME280;39536;52.198;9.920;2023-03-03T05:00:57;101562.69;;;0.33;100.00
13968;BME280;39536;52.198;9.920;2023-03-03T05:03:24;101572.16;;;0.37;100.00
13968;BME280;39536;52.198;9.920;2023-03-03T05:05:51;101571.59;;;0.48;100.00
13968;BME280;39536;52.198;9.920;2023-03-03T05:08:17;101568.28;;;0.52;100.00
13968;BME280;39536;52.198;9.920;2023-03-03T05:10:44;101578.72;;;0.59;100.00
13968;BME280;39536;52.198;9.920;2023-03-03T05:13:10;101576.81;;;0.52;100.00
13968;BME280;39536;52.198;9.920;2023-03-03T05:15:40;101579.53;;;0.58;100.00
13968;BME280;39536;52.198;9.920;2023-03-03T05:18:07;101583.81;;;0.58;100.00
13968;BME280;39536;52.198;9.920;2023-03-03T05:20:34;101576.16;;;0.59;100.00
13968;BME280;39536;52.198;9.920;2023-03-03T05:23:00;101576.13;;;0.58;100.00
13968;BME280;39536;52.198;9.920;2023-03-03T05:25:27;101565.09;;;0.62;100.00
13968;BME280;39536;52.198;9.920;2023-03-03T05:27:53;101556.53;;;0.60;100.00
13968;BME280;39536;52.198;9.920;2023-03-03T05:30:20;101556.59;;;0.63;100.00
13968;BME280;39536;52.198;9.920;2023-03-03T05:32:47;101560.78;;;0.59;100.00
13968;BME280;39536;52.198;9.920;2023-03-03T05:35:14;101563.31;;;0.58;100.00
13968;BME280;39536;52.198;9.920;2023-03-03T05:37:40;101551.47;;;0.63;100.00
13968;BME280;39536;52.198;9.920;2023-03-03T05:40:12;101546.41;;;0.66;100.00
13968;BME280;39536;52.198;9.920;2023-03-03T05:42:39;101543.00;;;0.67;100.00
13968;BME280;39536;52.198;9.920;2023-03-03T05:45:06;101535.19;;;0.61;100.00
13968;BME280;39536;52.198;9.920;2023-03-03T05:47:32;101534.63;;;0.38;100.00
13968;BME280;39536;52.198;9.920;2023-03-03T05:50:00;101534.56;;;0.36;100.00
13968;BME280;39536;52.198;9.920;2023-03-03T05:52:26;101532.88;;;0.37;100.00
13968;BME280;39536;52.198;9.920;2023-03-03T05:54:53;101548.16;;;0.34;100.00
13968;BME280;39536;52.198;9.920;2023-03-03T05:57:19;101547.38;;;0.36;100.00
13968;BME280;39536;52.198;9.920;2023-03-03T05:59:46;101543.16;;;0.38;100.00
13968;BME280;39536;52.198;9.920;2023-03-03T06:02:12;101542.41;;;0.42;100.00
13968;BME280;39536;52.198;9.920;2023-03-03T06:04:39;101545.03;;;0.44;100.00
13968;BME280;39536;52.198;9.920;2023-03-03T06:07:07;101551.94;;;0.48;100.00
13968;BME280;39536;52.198;9.920;2023-03-03T06:09:33;101554.28;;;0.39;100.00
13968;BME280;39536;52.198;9.920;2023-03-03T06:11:59;101555.19;;;0.41;100.00
13968;BME280;39536;52.198;9.920;2023-03-03T06:14:26;101563.06;;;0.49;100.00
13968;BME280;39536;52.198;9.920;2023-03-03T06:16:52;101570.06;;;0.56;100.00
13968;BME280;39536;52.198;9.920;2023-03-03T06:19:19;101575.34;;;0.60;100.00
13968;BME280;39536;52.198;9.920;2023-03-03T06:21:45;101581.78;;;0.46;100.00
13968;BME280;39536;52.198;9.920;2023-03-03T06:24:13;101586.81;;;0.41;100.00
13968;BME280;39536;52.198;9.920;2023-03-03T06:26:40;101601.34;;;0.41;100.00
13968;BME280;39536;52.198;9.920;2023-03-03T06:29:06;101594.44;;;0.40;100.00
13968;BME280;39536;52.198;9.920;2023-03-03T06:31:33;101596.31;;;0.45;100.00
13968;BME280;39536;52.198;9.920;2023-03-03T06:34:00;101597.47;;;0.57;100.00
13968;BME280;39536;52.198;9.920;2023-03-03T06:36:27;101594.69;;;0.49;100.00
13968;BME280;39536;52.198;9.920;2023-03-03T06:38:53;101601.66;;;0.53;100.00
13968;BME280;39536;52.198;9.920;2023-03-03T06:41:21;101602.53;;;0.55;100.00
13968;BME280;39536;52.198;9.920;2023-03-03T06:43:47;101602.69;;;0.61;100.00
13968;BME280;39536;52.198;9.920;2023-03-03T06:46:14;101607.13;;;0.68;100.00
13968;BME280;39536;52.198;9.920;2023-03-03T06:48:41;101607.75;;;0.58;100.00
13968;BME280;39536;52.198;9.920;2023-03-03T06:51:19;101598.69;;;0.38;100.00
13968;BME280;39536;52.198;9.920;2023-03-03T06:53:47;101601.28;;;0.39;100.00
13968;BME280;39536;52.198;9.920;2023-03-03T06:56:15;101607.25;;;0.40;100.00
13968;BME280;39536;52.198;9.920;2023-03-03T06:58:43;101612.38;;;0.40;100.00
13968;BME280;39536;52.198;9.920;2023-03-03T07:01:14;101616.47;;;0.32;100.00
13968;BME280;39536;52.198;9.920;2023-03-03T07:03:42;101599.66;;;0.43;100.00
13968;BME280;39536;52.198;9.920;2023-03-03T07:06:17;101607.59;;;0.52;100.00
13968;BME280;39536;52.198;9.920;2023-03-03T07:08:45;101609.03;;;0.41;100.00
13968;BME280;39536;52.198;9.920;2023-03-03T07:11:15;101609.91;;;0.43;100.00
13968;BME280;39536;52.198;9.920;2023-03-03T07:13:46;101618.84;;;0.59;100.00
13968;BME280;39536;52.198;9.920;2023-03-03T07:16:13;101618.06;;;0.60;100.00
13968;BME280;39536;52.198;9.920;2023-03-03T07:18:46;101628.59;;;0.39;100.00
13968;BME280;39536;52.198;9.920;2023-03-03T07:21:16;101625.38;;;0.46;100.00
13968;BME280;39536;52.198;9.920;2023-03-03T07:23:43;101626.47;;;0.56;100.00
13968;BME280;39536;52.198;9.920;2023-03-03T07:26:11;101624.06;;;0.62;100.00
13968;BME280;39536;52.198;9.920;2023-03-03T07:28:41;101631.84;;;0.65;100.00
13968;BME280;39536;52.198;9.920;2023-03-03T07:31:25;101625.28;;;0.76;100.00
13968;BME280;39536;52.198;9.920;2023-03-03T07:33:53;101637.91;;;0.68;100.00
13968;BME280;39536;52.198;9.920;2023-03-03T07:36:27;101641.22;;;0.64;100.00
13968;BME280;39536;52.198;9.920;2023-03-03T07:38:56;101637.19;;;0.74;100.00
13968;BME280;39536;52.198;9.920;2023-03-03T07:41:23;101638.13;;;0.76;100.00
13968;BME280;39536;52.198;9.920;2023-03-03T07:43:51;101643.50;;;0.87;100.00
13968;BME280;39536;52.198;9.920;2023-03-03T07:46:24;101644.41;;;0.89;100.00
13968;BME280;39536;52.198;9.920;2023-03-03T07:48:52;101649.00;;;1.02;100.00
13968;BME280;39536;52.198;9.920;2023-03-03T07:51:21;101646.50;;;1.04;100.00
13968;BME280;39536;52.198;9.920;2023-03-03T07:53:49;101650.72;;;1.02;100.00
13968;BME280;39536;52.198;9.920;2023-03-03T07:56:27;101648.75;;;0.91;100.00
13968;BME280;39536;52.198;9.920;2023-03-03T07:58:54;101651.56;;;1.02;100.00
13968;BME280;39536;52.198;9.920;2023-03-03T08:01:31;101651.31;;;0.91;100.00
13968;BME280;39536;52.198;9.920;2023-03-03T08:04:10;101652.88;;;0.85;100.00
13968;BME280;39536;52.198;9.920;2023-03-03T08:06:45;101655.81;;;1.00;100.00
13968;BME280;39536;52.198;9.920;2023-03-03T08:09:37;101652.50;;;1.06;100.00
13968;BME280;39536;52.198;9.920;2023-03-03T08:12:22;101650.03;;;1.09;100.00
13968;BME280;39536;52.198;9.920;2023-03-03T08:14:50;101659.63;;;1.16;100.00
13968;BME280;39536;52.198;9.920;2023-03-03T08:17:20;101646.75;;;1.14;100.00
13968;BME280;39536;52.198;9.920;2023-03-03T08:19:48;101655.44;;;1.20;100.00
13968;BME280;39536;52.198;9.920;2023-03-03T08:22:17;101653.66;;;1.17;100.00
13968;BME280;39536;52.198;9.920;2023-03-03T08:24:44;101662.91;;;1.12;100.00
13968;BME280;39536;52.198;9.920;2023-03-03T08:27:10;101665.56;;;0.80;100.00
13968;BME280;39536;52.198;9.920;2023-03-03T08:29:37;101667.19;;;0.77;100.00
13968;BME280;39536;52.198;9.920;2023-03-03T08:32:04;101666.56;;;0.85;100.00
13968;BME280;39536;52.198;9.920;2023-03-03T08:34:32;101657.84;;;0.79;100.00
13968;BME280;39536;52.198;9.920;2023-03-03T08:36:58;101661.72;;;0.63;100.00
13968;BME280;39536;52.198;9.920;2023-03-03T08:39:24;101663.44;;;0.64;100.00
13968;BME280;39536;52.198;9.920;2023-03-03T08:41:51;101666.56;;;0.85;100.00
13968;BME280;39536;52.198;9.920;2023-03-03T08:44:17;101669.31;;;0.93;100.00
13968;BME280;39536;52.198;9.920;2023-03-03T08:46:44;101672.97;;;1.03;100.00
13968;BME280;39536;52.198;9.920;2023-03-03T08:49:11;101664.44;;;1.04;100.00
13968;BME280;39536;52.198;9.920;2023-03-03T08:51:38;101673.19;;;1.12;100.00
13968;BME280;39536;52.198;9.920;2023-03-03T08:54:05;101670.53;;;1.09;100.00
13968;BME280;39536;52.198;9.920;2023-03-03T08:56:31;101668.97;;;1.14;100.00
13968;BME280;39536;52.198;9.920;2023-03-03T08:58:58;101668.56;;;1.33;100.00
13968;BME280;39536;52.198;9.920;2023-03-03T09:01:24;101670.53;;;1.44;100.00
13968;BME280;39536;52.198;9.920;2023-03-03T09:03:50;101671.22;;;1.36;100.00
13968;BME280;39536;52.198;9.920;2023-03-03T09:06:17;101667.47;;;1.22;100.00
13968;BME280;39536;52.198;9.920;2023-03-03T09:08:44;101676.81;;;1.20;100.00
13968;BME280;39536;52.198;9.920;2023-03-03T09:11:11;101673.38;;;1.20;100.00
13968;BME280;39536;52.198;9.920;2023-03-03T09:13:38;101672.75;;;1.28;100.00
13968;BME280;39536;52.198;9.920;2023-03-03T09:16:11;101674.97;;;1.51;100.00
13968;BME280;39536;52.198;9.920;2023-03-03T09:18:39;101676.19;;;1.67;100.00
13968;BME280;39536;52.198;9.920;2023-03-03T09:21:20;101675.53;;;1.75;100.00
13968;BME280;39536;52.198;9.920;2023-03-03T09:23:53;101672.91;;;1.74;100.00
13968;BME280;39536;52.198;9.920;2023-03-03T09:26:23;101672.09;;;1.75;100.00
13968;BME280;39536;52.198;9.920;2023-03-03T09:28:53;101667.94;;;1.81;100.00
13968;BME280;39536;52.198;9.920;2023-03-03T09:31:24;101669.59;;;1.79;100.00
13968;BME280;39536;52.198;9.920;2023-03-03T09:33:52;101666.25;;;1.83;100.00
13968;BME280;39536;52.198;9.920;2023-03-03T09:36:24;101663.00;;;1.91;100.00
13968;BME280;39536;52.198;9.920;2023-03-03T09:38:53;101675.13;;;1.98;100.00
13968;BME280;39536;52.198;9.920;2023-03-03T09:41:44;101668.97;;;1.90;100.00
13968;BME280;39536;52.198;9.920;2023-03-03T09:44:38;101672.56;;;1.58;100.00
13968;BME280;39536;52.198;9.920;2023-03-03T09:47:19;101664.28;;;1.70;100.00
13968;BME280;39536;52.198;9.920;2023-03-03T09:49:57;101670.47;;;1.80;100.00
13968;BME280;39536;52.198;9.920;2023-03-03T09:52:35;101675.78;;;1.88;100.00
13968;BME280;39536;52.198;9.920;2023-03-03T09:55:19;101671.59;;;1.93;100.00
13968;BME280;39536;52.198;9.920;2023-03-03T09:58:01;101667.44;;;1.98;100.00
13968;BME280;39536;52.198;9.920;2023-03-03T10:00:40;101677.03;;;2.06;100.00
13968;BME280;39536;52.198;9.920;2023-03-03T10:03:33;101673.28;;;1.91;100.00
13968;BME280;39536;52.198;9.920;2023-03-03T10:06:10;101679.16;;;1.85;100.00
13968;BME280;39536;52.198;9.920;2023-03-03T10:08:52;101672.88;;;1.72;100.00
13968;BME280;39536;52.198;9.920;2023-03-03T10:11:28;101673.94;;;1.82;100.00
13968;BME280;39536;52.198;9.920;2023-03-03T10:14:10;101672.56;;;1.96;100.00
13968;BME280;39536;52.198;9.920;2023-03-03T10:16:56;101676.94;;;2.02;100.00
13968;BME280;39536;52.198;9.920;2023-03-03T10:19:35;101674.88;;;1.85;100.00
13968;BME280;39536;52.198;9.920;2023-03-03T10:22:15;101671.16;;;2.12;100.00
13968;BME280;39536;52.198;9.920;2023-03-03T10:24:49;101673.66;;;2.09;100.00
13968;BME280;39536;52.198;9.920;2023-03-03T10:27:35;101673.63;;;2.07;100.00
13968;BME280;39536;52.198;9.920;2023-03-03T10:30:12;101676.44;;;2.20;100.00
13968;BME280;39536;52.198;9.920;2023-03-03T10:32:45;101674.41;;;2.05;100.00
13968;BME280;39536;52.198;9.920;2023-03-03T10:35:22;101682.84;;;1.96;100.00
13968;BME280;39536;52.198;9.920;2023-03-03T10:38:01;101676.84;;;1.97;100.00
13968;BME280;39536;52.198;9.920;2023-03-03T10:40:41;101674.34;;;2.02;100.00
13968;BME280;39536;52.198;9.920;2023-03-03T10:43:27;101681.56;;;2.18;100.00
13968;BME280;39536;52.198;9.920;2023-03-03T10:46:14;101685.38;;;2.39;100.00
13968;BME280;39536;52.198;9.920;2023-03-03T10:48:54;101691.09;;;2.24;100.00
13968;BME280;39536;52.198;9.920;2023-03-03T10:51:28;101681.19;;;2.00;100.00
13968;BME280;39536;52.198;9.920;2023-03-03T10:54:08;101685.59;;;1.68;100.00
13968;BME280;39536;52.198;9.920;2023-03-03T10:56:45;101691.75;;;1.74;100.00
13968;BME280;39536;52.198;9.920;2023-03-03T10:59:32;101684.78;;;1.69;100.00
13968;BME280;39536;52.198;9.920;2023-03-03T11:02:03;101682.31;;;1.72;100.00
13968;BME280;39536;52.198;9.920;2023-03-03T11:04:42;101687.78;;;1.89;100.00
13968;BME280;39536;52.198;9.920;2023-03-03T11:07:16;101676.81;;;1.96;100.00
13968;BME280;39536;52.198;9.920;2023-03-03T11:10:04;101681.59;;;1.80;100.00
13968;BME280;39536;52.198;9.920;2023-03-03T11:12:42;101670.09;;;2.02;100.00
13968;BME280;39536;52.198;9.920;2023-03-03T11:15:28;101680.66;;;2.16;100.00
13968;BME280;39536;52.198;9.920;2023-03-03T11:18:05;101675.28;;;2.05;100.00
13968;BME280;39536;52.198;9.920;2023-03-03T11:20:37;101675.41;;;2.12;100.00
13968;BME280;39536;52.198;9.920;2023-03-03T11:23:21;101668.63;;;2.14;100.00
13968;BME280;39536;52.198;9.920;2023-03-03T11:26:00;101665.63;;;2.36;100.00
13968;BME280;39536;52.198;9.920;2023-03-03T11:28:43;101667.44;;;2.40;100.00
13968;BME280;39536;52.198;9.920;2023-03-03T11:31:18;101666.22;;;2.21;100.00
13968;BME280;39536;52.198;9.920;2023-03-03T11:33:54;101664.41;;;2.17;100.00
13968;BME280;39536;52.198;9.920;2023-03-03T11:36:26;101664.94;;;2.01;100.00
13968;BME280;39536;52.198;9.920;2023-03-03T11:38:56;101668.59;;;2.12;100.00
13968;BME280;39536;52.198;9.920;2023-03-03T11:41:33;101667.81;;;2.18;100.00
13968;BME280;39536;52.198;9.920;2023-03-03T11:44:10;101666.22;;;2.23;100.00
13968;BME280;39536;52.198;9.920;2023-03-03T11:46:45;101668.13;;;2.33;100.00
13968;BME280;39536;52.198;9.920;2023-03-03T11:49:19;101667.56;;;2.48;100.00
13968;BME280;39536;52.198;9.920;2023-03-03T11:51:57;101660.28;;;2.25;100.00
13968;BME280;39536;52.198;9.920;2023-03-03T11:54:31;101669.59;;;2.19;100.00
13968;BME280;39536;52.198;9.920;2023-03-03T11:57:12;101659.25;;;2.17;100.00
13968;BME280;39536;52.198;9.920;2023-03-03T11:59:49;101655.34;;;2.36;100.00
13968;BME280;39536;52.198;9.920;2023-03-03T12:02:42;101657.03;;;2.36;100.00
13968;BME280;39536;52.198;9.920;2023-03-03T12:05:14;101650.63;;;2.14;100.00
13968;BME280;39536;52.198;9.920;2023-03-03T12:07:49;101641.00;;;2.05;100.00
13968;BME280;39536;52.198;9.920;2023-03-03T12:10:23;101645.66;;;2.23;100.00
13968;BME280;39536;52.198;9.920;2023-03-03T12:13:01;101641.31;;;2.20;100.00
13968;BME280;39536;52.198;9.920;2023-03-03T12:15:34;101627.09;;;2.38;100.00
13968;BME280;39536;52.198;9.920;2023-03-03T12:18:22;101631.22;;;2.29;100.00
13968;BME280;39536;52.198;9.920;2023-03-03T12:21:06;101630.16;;;2.18;100.00
13968;BME280;39536;52.198;9.920;2023-03-03T12:26:31;101625.19;;;2.27;100.00
13968;BME280;39536;52.198;9.920;2023-03-03T12:29:05;101620.41;;;2.47;100.00
13968;BME280;39536;52.198;9.920;2023-03-03T12:31:44;101609.22;;;2.45;100.00
13968;BME280;39536;52.198;9.920;2023-03-03T12:34:21;101617.84;;;2.49;100.00
13968;BME280;39536;52.198;9.920;2023-03-03T12:37:04;101605.72;;;2.40;100.00
13968;BME280;39536;52.198;9.920;2023-03-03T12:39:43;101598.81;;;2.38;100.00
13968;BME280;39536;52.198;9.920;2023-03-03T12:42:23;101603.22;;;2.45;100.00
13968;BME280;39536;52.198;9.920;2023-03-03T12:44:56;101593.25;;;2.63;100.00
13968;BME280;39536;52.198;9.920;2023-03-03T12:47:28;101590.69;;;2.63;100.00
13968;BME280;39536;52.198;9.920;2023-03-03T12:50:06;101593.25;;;2.62;100.00
13968;BME280;39536;52.198;9.920;2023-03-03T12:52:45;101593.38;;;2.71;100.00
13968;BME280;39536;52.198;9.920;2023-03-03T12:55:33;101584.88;;;2.75;100.00
13968;BME280;39536;52.198;9.920;2023-03-03T12:58:06;101585.22;;;2.96;100.00
13968;BME280;39536;52.198;9.920;2023-03-03T13:00:47;101585.28;;;2.99;100.00
13968;BME280;39536;52.198;9.920;2023-03-03T13:03:28;101586.09;;;2.98;100.00
13968;BME280;39536;52.198;9.920;2023-03-03T13:06:06;101584.44;;;3.00;100.00
13968;BME280;39536;52.198;9.920;2023-03-03T13:08:49;101582.00;;;3.11;100.00
13968;BME280;39536;52.198;9.920;2023-03-03T13:11:26;101579.50;;;3.17;100.00